Bedford, Massachusetts
Current Conditions -  °F | °C
As of 4:12 PM on Thursday 23 Oct 2014 (Local Time) from KBED Reporting Station
Light Rain Light Rain  
Wind Chill: 52°   Ceiling: 600
Heat Index: 52°   Visibility: 5mi
Dew Point: 52°   Wind: 17mph
Humidity: 100%   Direction: 10°N
Pressure: 29.62"   Gusts: 28mph
Location:  42.49°N, 71.28°W
Report Text: KBED 232012Z 01015G24KT 5SM -RA BR BKN006 OVC014 11/11 A2962 RMK AO2 RAB09 P0000 T01110111
Loading
Personal Weather Stations






























Interactive Weather Map
Tropical Storm Tracking
New forecast layout! Learn more

10-Day Weather Forecast

Advertisements
Track Severe Weather on mobile